createdAt,value
2024-03-05T00:00:13.027Z,228
2024-03-05T00:01:27.321Z,223.4
2024-03-05T00:02:41.614Z,226
2024-03-05T00:03:55.908Z,227.6
2024-03-05T00:05:10.201Z,224.3
2024-03-05T00:06:24.495Z,237.6
2024-03-05T00:07:38.789Z,248.4
2024-03-05T00:08:53.082Z,246.3
2024-03-05T00:10:07.376Z,237.5
2024-03-05T00:11:21.670Z,244.1
2024-03-05T00:12:35.963Z,247.8
2024-03-05T00:13:50.257Z,264
2024-03-05T00:15:04.551Z,255.7
2024-03-05T00:16:17.860Z,257.6
2024-03-05T00:17:32.154Z,261.9
2024-03-05T00:18:46.449Z,252.2
2024-03-05T00:20:00.742Z,304
2024-03-05T00:21:15.036Z,287.5
2024-03-05T00:22:29.330Z,313
2024-03-05T00:23:42.645Z,296.6
2024-03-05T00:24:56.938Z,317.2
2024-03-05T00:26:11.232Z,319.5
2024-03-05T00:27:25.525Z,304.3
2024-03-05T00:28:39.818Z,319.8
2024-03-05T00:29:54.111Z,300
2024-03-05T00:31:08.405Z,313.4
2024-03-05T00:32:22.699Z,314.5
2024-03-05T00:33:36.993Z,323.6
2024-03-05T00:34:51.286Z,327.3
2024-03-05T00:36:05.580Z,332.6
2024-03-05T00:37:19.874Z,316.9
2024-03-05T00:38:34.167Z,328.8
2024-03-05T00:39:47.477Z,336.9
2024-03-05T00:41:01.771Z,327.6
2024-03-05T00:42:16.064Z,333.9
2024-03-05T00:43:30.358Z,351.8
2024-03-05T00:44:44.652Z,364.9
2024-03-05T00:45:58.945Z,343.9
2024-03-05T00:47:13.239Z,361.6
2024-03-05T00:48:27.533Z,343
2024-03-05T00:49:41.826Z,346.8
2024-03-05T00:50:56.120Z,353.1
2024-03-05T00:52:10.413Z,346.9
2024-03-05T00:53:24.707Z,383.5
2024-03-05T00:54:39.001Z,359.4
2024-03-05T00:55:52.311Z,395.8
2024-03-05T00:57:06.604Z,368.8
2024-03-05T00:58:20.898Z,417.2
2024-03-05T00:59:35.191Z,334.9
2024-03-05T01:00:49.485Z,420.4
2024-03-05T01:02:03.779Z,348.2
2024-03-05T01:03:18.072Z,365.7
2024-03-05T01:04:32.366Z,376
2024-03-05T01:05:46.660Z,332
2024-03-05T01:07:00.954Z,334.8
2024-03-05T01:08:15.247Z,318.9
2024-03-05T01:09:29.541Z,311.1
2024-03-05T01:10:43.834Z,275.1
2024-03-05T01:11:57.144Z,272.1
2024-03-05T01:13:11.438Z,269.5
2024-03-05T01:14:25.731Z,259.2
2024-03-05T01:15:40.025Z,264.6
2024-03-05T01:16:54.319Z,257.2
2024-03-05T01:18:08.613Z,254
2024-03-05T01:19:22.906Z,254.8
2024-03-05T01:20:37.200Z,251.2
2024-03-05T01:21:51.493Z,246.7
2024-03-05T01:23:05.787Z,255.6
2024-03-05T01:24:20.081Z,246.9
2024-03-05T01:25:34.374Z,245
2024-03-05T01:26:48.668Z,240.5
2024-03-05T01:28:01.978Z,257.5
2024-03-05T01:29:16.272Z,245.6
2024-03-05T01:30:30.565Z,243.4
2024-03-05T01:31:44.859Z,241.3
2024-03-05T01:32:59.153Z,232
2024-03-05T01:34:13.446Z,244.3
2024-03-05T01:35:27.740Z,239.2
2024-03-05T01:36:42.034Z,245.3
2024-03-05T01:37:56.328Z,241.2
2024-03-05T01:39:10.621Z,233.7
2024-03-05T01:40:24.915Z,239.3
2024-03-05T01:41:39.208Z,234.4
2024-03-05T01:42:53.502Z,241.3
2024-03-05T01:44:06.812Z,242.9
2024-03-05T01:45:21.105Z,245.3
2024-03-05T01:46:35.399Z,233.6
2024-03-05T01:47:49.694Z,229.3
2024-03-05T01:49:03.988Z,234.6
2024-03-05T01:50:18.281Z,237
2024-03-05T01:51:32.575Z,242.8
2024-03-05T01:52:46.868Z,241.4
2024-03-05T01:54:01.162Z,239.5
2024-03-05T01:55:15.456Z,240.8
2024-03-05T01:56:29.749Z,236.1
2024-03-05T01:57:44.043Z,243.9
2024-03-05T01:58:58.337Z,244.8
2024-03-05T02:00:11.647Z,235.6
2024-03-05T02:01:25.940Z,245.1
2024-03-05T02:02:40.234Z,247.8
2024-03-05T02:03:54.528Z,252.1
2024-03-05T02:05:08.821Z,256.5
2024-03-05T02:06:23.115Z,253.8
2024-03-05T02:07:37.408Z,259.1
2024-03-05T02:08:51.702Z,253.7
2024-03-05T02:10:05.996Z,256.8
2024-03-05T02:11:20.289Z,256.9
2024-03-05T02:12:34.583Z,270.9
2024-03-05T02:13:48.876Z,254.8
2024-03-05T02:15:03.170Z,269
2024-03-05T02:16:16.480Z,253.2
2024-03-05T02:17:30.773Z,256.7
2024-03-05T02:18:45.067Z,267.8
2024-03-05T02:19:59.360Z,297.1
2024-03-05T02:21:13.654Z,266.9
2024-03-05T02:22:27.947Z,273.6
2024-03-05T02:23:42.240Z,273.1
2024-03-05T02:24:56.534Z,267
2024-03-05T02:26:10.828Z,270.1
2024-03-05T02:27:25.121Z,280.1
2024-03-05T02:28:39.414Z,260.5
2024-03-05T02:29:53.708Z,278.7
2024-03-05T02:31:08.002Z,274.7
2024-03-05T02:32:21.311Z,283.9
2024-03-05T02:33:35.605Z,287.7
2024-03-05T02:34:49.899Z,307.8
2024-03-05T02:36:04.192Z,294.8
2024-03-05T02:37:18.486Z,291.2
2024-03-05T02:38:32.779Z,297.7
2024-03-05T02:39:47.072Z,299.5
2024-03-05T02:41:01.366Z,328.7
2024-03-05T02:42:15.660Z,291.7
2024-03-05T02:43:29.953Z,286.6
2024-03-05T02:44:44.247Z,299.3
2024-03-05T02:45:58.541Z,288.7
2024-03-05T02:47:12.834Z,299.1
2024-03-05T02:48:26.144Z,310.5
2024-03-05T02:49:40.437Z,314.9
2024-03-05T02:50:54.730Z,307.4
2024-03-05T02:52:09.024Z,330.4
2024-03-05T02:53:23.317Z,303.6
2024-03-05T02:54:37.610Z,316.9
2024-03-05T02:55:51.904Z,306.4
2024-03-05T02:57:06.197Z,320.9
2024-03-05T02:58:20.490Z,296.1
2024-03-05T02:59:34.783Z,317.5
2024-03-05T03:00:49.076Z,319
2024-03-05T03:02:03.370Z,300.4
2024-03-05T03:03:17.664Z,318.5
2024-03-05T03:04:30.974Z,323
2024-03-05T03:05:45.267Z,326.7
2024-03-05T03:06:59.560Z,345.4
2024-03-05T03:08:13.854Z,313.1
2024-03-05T03:09:28.147Z,320
2024-03-05T03:10:42.440Z,326.3
2024-03-05T03:11:56.733Z,316.7
2024-03-05T03:13:11.026Z,330.8
2024-03-05T03:14:25.320Z,302.6
2024-03-05T03:15:39.613Z,295.6
2024-03-05T03:16:53.906Z,305.7
2024-03-05T03:18:08.200Z,313.6
2024-03-05T03:19:22.493Z,328.5
2024-03-05T03:20:35.802Z,323.2
2024-03-05T03:21:50.095Z,302.1
2024-03-05T03:23:04.388Z,332.1
2024-03-05T03:24:18.682Z,323
2024-03-05T03:25:32.976Z,320.6
2024-03-05T03:26:47.269Z,315.3
2024-03-05T03:28:01.562Z,301.2
2024-03-05T03:29:15.856Z,356.7
2024-03-05T03:30:30.149Z,385.8
2024-03-05T03:31:44.442Z,416.1
2024-03-05T03:32:58.735Z,353.2
2024-03-05T03:34:13.028Z,343.3
2024-03-05T03:35:27.322Z,375.6
2024-03-05T03:36:40.632Z,391.6
2024-03-05T03:37:54.925Z,340.3
2024-03-05T03:39:09.219Z,479.7
2024-03-05T03:40:23.512Z,428.1
2024-03-05T03:41:37.806Z,569.9
2024-03-05T03:42:52.099Z,383.5
2024-03-05T03:44:06.393Z,525.7
2024-03-05T03:45:20.687Z,462.1
2024-03-05T03:46:34.981Z,440
2024-03-05T03:47:49.275Z,315.1
2024-03-05T03:49:03.568Z,412.1
2024-03-05T03:50:17.862Z,378.6
2024-03-05T03:51:32.155Z,365.6
2024-03-05T03:52:45.465Z,520.5
2024-03-05T03:53:59.759Z,468.4
2024-03-05T03:55:14.052Z,456.7
2024-03-05T03:56:28.346Z,499.1
2024-03-05T03:57:42.640Z,502.2
2024-03-05T03:58:56.933Z,365.1
2024-03-05T04:00:11.227Z,377.5
2024-03-05T04:01:25.520Z,403.4
2024-03-05T04:02:39.814Z,395.1
2024-03-05T04:03:54.108Z,417
2024-03-05T04:05:08.401Z,405.2
2024-03-05T04:06:22.694Z,485.6
2024-03-05T04:07:36.988Z,467.5
2024-03-05T04:08:50.298Z,495.2
2024-03-05T04:10:04.591Z,578.5
2024-03-05T04:11:18.885Z,450.5
2024-03-05T04:12:33.178Z,407.6
2024-03-05T04:13:47.472Z,523.2
2024-03-05T04:15:01.765Z,391.2
2024-03-05T04:16:16.059Z,372.3
2024-03-05T04:17:30.352Z,515.9
2024-03-05T04:18:44.646Z,435.3
2024-03-05T04:19:58.940Z,594.3
2024-03-05T04:21:13.233Z,564.6
2024-03-05T04:22:27.527Z,485.7
2024-03-05T04:23:41.820Z,436.2
2024-03-05T04:24:55.130Z,428.8
2024-03-05T04:26:09.423Z,423.9
2024-03-05T04:27:23.717Z,387.3
2024-03-05T04:28:38.010Z,381.6
2024-03-05T04:29:52.304Z,417.9
2024-03-05T04:31:06.597Z,369.9
2024-03-05T04:32:19.912Z,451.4
2024-03-05T04:33:34.206Z,432.2
2024-03-05T04:34:48.499Z,352.3
2024-03-05T04:36:02.792Z,403.2
2024-03-05T04:37:17.086Z,372.3
2024-03-05T04:38:31.379Z,408
2024-03-05T04:39:45.672Z,423.5
2024-03-05T04:40:59.966Z,353.9
2024-03-05T04:42:14.259Z,394.9
2024-03-05T04:43:28.552Z,384.4
2024-03-05T04:44:42.845Z,439.2
2024-03-05T04:45:57.138Z,431.5
2024-03-05T04:47:11.432Z,371.9
2024-03-05T04:48:24.741Z,360.2
2024-03-05T04:49:39.034Z,432.5
2024-03-05T04:50:53.327Z,393
2024-03-05T04:52:07.621Z,384.6
2024-03-05T04:53:21.914Z,444.3
2024-03-05T04:54:36.207Z,383.8
2024-03-05T04:55:50.501Z,454
2024-03-05T04:57:04.794Z,411.2
2024-03-05T04:58:19.087Z,362.2
2024-03-05T04:59:33.381Z,398.4
2024-03-05T05:00:47.674Z,407.5
2024-03-05T05:02:01.967Z,444
2024-03-05T05:03:16.261Z,362.3
2024-03-05T05:04:29.570Z,350.6
2024-03-05T05:05:43.863Z,386.7
2024-03-05T05:06:58.157Z,382
2024-03-05T05:08:12.450Z,367.4
2024-03-05T05:09:26.743Z,346.3
2024-03-05T05:10:41.038Z,404.6
2024-03-05T05:11:55.331Z,417
2024-03-05T05:13:09.625Z,355
2024-03-05T05:14:23.918Z,339.4
2024-03-05T05:15:38.211Z,394.7
2024-03-05T05:16:52.504Z,342.6
2024-03-05T05:18:06.798Z,407.1
2024-03-05T05:19:21.091Z,362.7
2024-03-05T05:20:34.400Z,342.9
2024-03-05T05:21:48.694Z,392
2024-03-05T05:23:02.987Z,378.3
2024-03-05T05:24:17.281Z,345.9
2024-03-05T05:25:31.574Z,358.9
2024-03-05T05:26:45.868Z,420.9
2024-03-05T05:28:00.161Z,381.1
2024-03-05T05:29:14.413Z,408.4
2024-03-05T05:30:28.706Z,386.3
2024-03-05T05:31:43.001Z,450
2024-03-05T05:32:57.251Z,492.4
2024-03-05T05:34:11.491Z,436.3
2024-03-05T05:35:25.731Z,368.7
2024-03-05T05:36:39.041Z,511.6
2024-03-05T05:37:53.335Z,531.5
2024-03-05T05:39:07.585Z,656.3
2024-03-05T05:40:21.824Z,632.9
2024-03-05T05:41:36.063Z,804.1
2024-03-05T05:42:50.303Z,796.2
2024-03-05T05:44:04.542Z,785.9
2024-03-05T05:45:18.781Z,941.9
2024-03-05T05:46:33.021Z,805.5
2024-03-05T05:47:47.260Z,779.3
2024-03-05T05:49:01.499Z,697.9
2024-03-05T05:50:15.739Z,749.2
2024-03-05T05:51:29.978Z,691.1
2024-03-05T05:52:43.233Z,889.8
2024-03-05T05:53:57.473Z,742.7
2024-03-05T05:55:11.713Z,725.1
2024-03-05T05:56:25.952Z,821.1
2024-03-05T05:57:40.192Z,1014.8
2024-03-05T05:58:54.431Z,541.5
2024-03-05T06:00:08.671Z,388.6
2024-03-05T06:01:22.910Z,342.8
2024-03-05T06:02:37.149Z,306.4
2024-03-05T06:03:51.389Z,320.4
2024-03-05T06:05:05.629Z,332.1
2024-03-05T06:06:19.868Z,337.8
2024-03-05T06:07:34.108Z,320.5
2024-03-05T06:08:47.364Z,331.2
2024-03-05T06:10:01.603Z,326.1
2024-03-05T06:11:15.842Z,319
2024-03-05T06:12:30.082Z,335
2024-03-05T06:13:44.322Z,341.9
2024-03-05T06:14:58.561Z,331.5
2024-03-05T06:16:12.801Z,355.9
2024-03-05T06:17:27.041Z,346.8
2024-03-05T06:18:41.281Z,360.2
2024-03-05T06:19:55.521Z,347.4
2024-03-05T06:21:09.760Z,361.6
2024-03-05T06:22:24.000Z,384.5
2024-03-05T06:23:38.239Z,371.8
2024-03-05T06:24:51.495Z,342.6
2024-03-05T06:26:05.735Z,338.2
2024-03-05T06:27:19.975Z,343.6
2024-03-05T06:28:34.215Z,331.2
2024-03-05T06:29:48.455Z,345.8
2024-03-05T06:31:02.695Z,337.7
2024-03-05T06:32:16.934Z,350
2024-03-05T06:33:31.174Z,325.4
2024-03-05T06:34:45.414Z,342.6
2024-03-05T06:35:59.654Z,340.5
2024-03-05T06:37:13.894Z,302
2024-03-05T06:38:28.134Z,307.7
2024-03-05T06:39:42.374Z,311
2024-03-05T06:40:55.630Z,292.5
2024-03-05T06:42:09.870Z,285.5
2024-03-05T06:43:24.110Z,291.4
2024-03-05T06:44:38.349Z,283.6
2024-03-05T06:45:52.589Z,297.6
2024-03-05T06:47:06.829Z,285.3
2024-03-05T06:48:21.069Z,292.1
2024-03-05T06:49:35.309Z,272.4
2024-03-05T06:50:49.550Z,275.9
2024-03-05T06:52:03.789Z,257.6
2024-03-05T06:53:18.029Z,260.1
2024-03-05T06:54:32.270Z,249.9
2024-03-05T06:55:46.510Z,250.2
2024-03-05T06:56:59.766Z,254.8
2024-03-05T06:58:14.006Z,242.7
2024-03-05T06:59:28.246Z,237.7
2024-03-05T07:00:42.486Z,229.8
2024-03-05T07:01:56.726Z,226.1
2024-03-05T07:03:10.965Z,215.4
2024-03-05T07:04:25.205Z,216.2
2024-03-05T07:05:39.445Z,208.3
2024-03-05T07:06:53.685Z,197.5
2024-03-05T07:08:07.925Z,204.7
2024-03-05T07:09:22.164Z,189.4
2024-03-05T07:10:36.405Z,196.1
2024-03-05T07:11:50.645Z,184.8
2024-03-05T07:13:03.901Z,183.8
2024-03-05T07:14:18.140Z,178.7
2024-03-05T07:15:32.380Z,171.3
2024-03-05T07:16:46.620Z,162.4
2024-03-05T07:18:00.859Z,171.4
2024-03-05T07:19:15.099Z,158.8
2024-03-05T07:20:29.339Z,159.3
2024-03-05T07:21:43.580Z,153.5
2024-03-05T07:22:57.819Z,152.9
2024-03-05T07:24:12.059Z,146.7
2024-03-05T07:25:26.299Z,138.1
2024-03-05T07:26:40.539Z,130.8
2024-03-05T07:27:54.778Z,124.6
2024-03-05T07:29:08.034Z,128.1
2024-03-05T07:30:22.274Z,119.5
2024-03-05T07:31:36.513Z,117.2
2024-03-05T07:32:50.753Z,115.5
2024-03-05T07:34:04.992Z,117.1
2024-03-05T07:35:19.232Z,118.9
2024-03-05T07:36:33.472Z,117.9
2024-03-05T07:37:47.711Z,114.5
2024-03-05T07:39:01.951Z,122.3
2024-03-05T07:40:16.190Z,121.9
2024-03-05T07:41:30.429Z,115
2024-03-05T07:42:44.669Z,128.8
2024-03-05T07:43:58.909Z,124.5
2024-03-05T07:45:12.165Z,123
2024-03-05T07:46:26.405Z,117
2024-03-05T07:47:40.644Z,120
2024-03-05T07:48:54.884Z,120.4
2024-03-05T07:50:09.124Z,124.5
2024-03-05T07:51:23.364Z,125.4
2024-03-05T07:52:37.604Z,123.1
2024-03-05T07:53:51.844Z,116.8
2024-03-05T07:55:06.084Z,126.1
2024-03-05T07:56:20.324Z,117.7
2024-03-05T07:57:34.564Z,117.3
2024-03-05T07:58:48.804Z,121.2
2024-03-05T08:00:03.044Z,123.8
2024-03-05T08:01:16.300Z,121.1
2024-03-05T08:02:30.540Z,120.5
2024-03-05T08:03:44.780Z,122.3
2024-03-05T08:04:59.020Z,117.4
2024-03-05T08:06:13.260Z,111.3
2024-03-05T08:07:27.500Z,117.3
2024-03-05T08:08:41.739Z,117.6
2024-03-05T08:09:55.979Z,111.8
2024-03-05T08:11:10.218Z,114
2024-03-05T08:12:24.458Z,112
2024-03-05T08:13:38.698Z,111.9
2024-03-05T08:14:52.938Z,107
2024-03-05T08:16:07.177Z,111
2024-03-05T08:17:20.433Z,113.3
2024-03-05T08:18:34.672Z,108.1
2024-03-05T08:19:48.911Z,105.8
2024-03-05T08:21:03.151Z,108.3
2024-03-05T08:22:17.390Z,103.3
2024-03-05T08:23:31.630Z,107
2024-03-05T08:24:45.869Z,104.1
2024-03-05T08:26:00.109Z,102.1
2024-03-05T08:27:14.348Z,102.5
2024-03-05T08:28:28.588Z,102.4
2024-03-05T08:29:42.827Z,99.7
2024-03-05T08:30:57.066Z,96.8
2024-03-05T08:32:11.306Z,101.6
2024-03-05T08:33:24.561Z,96.1
2024-03-05T08:34:38.801Z,100.9
2024-03-05T08:35:53.040Z,98.8
2024-03-05T08:37:07.280Z,101.1
2024-03-05T08:38:21.520Z,102.3
2024-03-05T08:39:35.760Z,106.9
2024-03-05T08:40:49.021Z,105.3
2024-03-05T08:42:03.261Z,102.6
2024-03-05T08:43:17.500Z,102.5
2024-03-05T08:44:31.740Z,104.5
2024-03-05T08:45:45.980Z,103.4
2024-03-05T08:47:00.220Z,106
2024-03-05T08:48:14.460Z,101.5
2024-03-05T08:49:28.700Z,101.7
2024-03-05T08:50:42.939Z,105.2
2024-03-05T08:51:57.178Z,99.5
2024-03-05T08:53:11.418Z,97.2
2024-03-05T08:54:25.657Z,97
2024-03-05T08:55:39.896Z,93.8
2024-03-05T08:56:53.152Z,92.1
2024-03-05T08:58:07.392Z,96.1
2024-03-05T08:59:21.632Z,99.7
2024-03-05T09:00:35.872Z,95
2024-03-05T09:01:50.111Z,94.4
2024-03-05T09:03:04.350Z,96.1
2024-03-05T09:04:18.590Z,92.3
2024-03-05T09:05:32.829Z,96.8
2024-03-05T09:06:47.068Z,91.9
2024-03-05T09:08:01.308Z,88.3
2024-03-05T09:09:15.547Z,96.6
2024-03-05T09:10:29.787Z,94.1
2024-03-05T09:11:44.026Z,92.2
2024-03-05T09:12:57.282Z,96.3
2024-03-05T09:14:11.521Z,96.6
2024-03-05T09:15:25.760Z,92.2
2024-03-05T09:16:40.000Z,91.8
2024-03-05T09:17:54.241Z,92.7
2024-03-05T09:19:08.481Z,86.8
2024-03-05T09:20:22.721Z,87.9
2024-03-05T09:21:36.961Z,88.9
2024-03-05T09:22:51.200Z,86
2024-03-05T09:24:05.439Z,80.8
2024-03-05T09:25:19.679Z,88.9
2024-03-05T09:26:33.918Z,95.5
2024-03-05T09:27:48.157Z,91.9
2024-03-05T09:29:01.413Z,85
2024-03-05T09:30:15.652Z,84.5
2024-03-05T09:31:29.892Z,85.4
2024-03-05T09:32:44.132Z,84.1
2024-03-05T09:33:58.372Z,85.4
2024-03-05T09:35:12.612Z,83.8
2024-03-05T09:36:26.851Z,81
2024-03-05T09:37:41.091Z,84.2
2024-03-05T09:38:55.330Z,86.6
2024-03-05T09:40:09.570Z,85.3
2024-03-05T09:41:23.810Z,85.8
2024-03-05T09:42:38.050Z,90.4
2024-03-05T09:43:52.290Z,100.4
2024-03-05T09:45:05.546Z,93.3
2024-03-05T09:46:19.786Z,95
2024-03-05T09:47:34.026Z,96.1
2024-03-05T09:48:48.266Z,93.3
2024-03-05T09:50:02.505Z,95
2024-03-05T09:51:16.745Z,95.8
2024-03-05T09:52:30.985Z,96.5
2024-03-05T09:53:45.224Z,96.2
2024-03-05T09:54:59.464Z,93.8
2024-03-05T09:56:13.704Z,93.4
2024-03-05T09:57:27.943Z,95.5
2024-03-05T09:58:42.183Z,96.1
2024-03-05T09:59:56.423Z,94.5
2024-03-05T10:01:09.679Z,97
2024-03-05T10:02:23.919Z,99.5
2024-03-05T10:03:38.159Z,90.9
2024-03-05T10:04:52.399Z,97.5
2024-03-05T10:06:06.638Z,95.9
2024-03-05T10:07:20.878Z,94.3
2024-03-05T10:08:35.117Z,100.8
2024-03-05T10:09:49.357Z,97.3
2024-03-05T10:11:03.597Z,99.7
2024-03-05T10:12:17.837Z,103.3
2024-03-05T10:13:32.077Z,97
2024-03-05T10:14:46.317Z,106
2024-03-05T10:16:00.557Z,112.8
2024-03-05T10:17:13.813Z,106.7
2024-03-05T10:18:28.052Z,106.2
2024-03-05T10:19:42.292Z,107.7
2024-03-05T10:20:56.532Z,113.5
2024-03-05T10:22:10.772Z,104.6
2024-03-05T10:23:25.011Z,106.1
2024-03-05T10:24:39.251Z,106.6
2024-03-05T10:25:53.490Z,101.2
2024-03-05T10:27:07.730Z,99.2
2024-03-05T10:28:21.969Z,101.6
2024-03-05T10:29:36.208Z,100.7
2024-03-05T10:30:50.448Z,102.7
2024-03-05T10:32:04.687Z,96.4
2024-03-05T10:33:17.943Z,91.2
2024-03-05T10:34:32.182Z,95.8
2024-03-05T10:35:46.422Z,93.2
2024-03-05T10:37:00.661Z,97.7
2024-03-05T10:38:14.900Z,93.1
2024-03-05T10:39:29.139Z,97
2024-03-05T10:40:43.379Z,102.2
2024-03-05T10:41:57.619Z,103
2024-03-05T10:43:11.858Z,97.2
2024-03-05T10:44:26.097Z,105.9
2024-03-05T10:45:40.337Z,104.9
2024-03-05T10:46:54.576Z,106.7
2024-03-05T10:48:08.816Z,108.6
2024-03-05T10:49:22.071Z,109.3
2024-03-05T10:50:36.310Z,114.4
2024-03-05T10:51:50.550Z,108.2
2024-03-05T10:53:04.789Z,110.4
2024-03-05T10:54:19.028Z,108.2
2024-03-05T10:55:33.268Z,110.8
2024-03-05T10:56:47.508Z,107.9
2024-03-05T10:58:01.747Z,107.3
2024-03-05T10:59:15.986Z,105.3
2024-03-05T11:00:30.225Z,108.6
2024-03-05T11:01:44.465Z,114.5
2024-03-05T11:02:58.704Z,109.2
2024-03-05T11:04:12.943Z,106.5
2024-03-05T11:05:26.199Z,112
2024-03-05T11:06:40.438Z,103.6
2024-03-05T11:07:54.678Z,103.7
2024-03-05T11:09:08.917Z,106.1
2024-03-05T11:10:23.157Z,102.7
2024-03-05T11:11:37.397Z,107.8
2024-03-05T11:12:51.636Z,110.1
2024-03-05T11:14:05.875Z,103.9
2024-03-05T11:15:20.115Z,103.8
2024-03-05T11:16:34.354Z,93.8
2024-03-05T11:17:48.595Z,93.6
2024-03-05T11:19:02.834Z,89.6
2024-03-05T11:20:17.074Z,94.3
2024-03-05T11:21:30.329Z,92.5
2024-03-05T11:22:44.569Z,87.1
2024-03-05T11:23:58.809Z,89.2
2024-03-05T11:25:13.048Z,90.7
2024-03-05T11:26:27.288Z,85.6
2024-03-05T11:27:41.528Z,84.3
2024-03-05T11:28:55.768Z,85.2
2024-03-05T11:30:10.008Z,85
2024-03-05T11:31:24.248Z,82.2
2024-03-05T11:32:38.488Z,80.7
2024-03-05T11:33:52.727Z,76.3
2024-03-05T11:35:06.967Z,78.7
2024-03-05T11:36:21.207Z,71.9
2024-03-05T11:37:34.463Z,73.3
2024-03-05T11:38:48.702Z,74.5
2024-03-05T11:40:02.943Z,76.1
2024-03-05T11:41:17.183Z,72
2024-03-05T11:42:31.422Z,77.4
2024-03-05T11:43:45.662Z,80
2024-03-05T11:44:59.901Z,79.2
2024-03-05T11:46:14.141Z,74.5
2024-03-05T11:47:28.381Z,75.7
2024-03-05T11:48:42.621Z,76.1
2024-03-05T11:49:56.861Z,81.2
2024-03-05T11:51:11.100Z,78.4
2024-03-05T11:52:25.340Z,81.8
2024-03-05T11:53:38.595Z,76.4
2024-03-05T11:54:52.835Z,79.8
2024-03-05T11:56:07.075Z,77.7
2024-03-05T11:57:21.314Z,81.2
2024-03-05T11:58:35.554Z,80.6
2024-03-05T11:59:49.794Z,81.9
2024-03-05T12:01:04.035Z,78.3
2024-03-05T12:02:18.275Z,80.3
2024-03-05T12:03:32.515Z,79.6
2024-03-05T12:04:46.754Z,78.8
2024-03-05T12:06:00.994Z,81.8
2024-03-05T12:07:15.234Z,80.5
2024-03-05T12:08:29.474Z,75.5
2024-03-05T12:09:42.730Z,83.2
2024-03-05T12:10:56.970Z,80
2024-03-05T12:12:10.231Z,81.3
2024-03-05T12:13:23.492Z,83.6
2024-03-05T12:14:36.748Z,80.4
2024-03-05T12:15:50.989Z,80.8
2024-03-05T12:17:05.228Z,84
2024-03-05T12:18:19.468Z,84.5
2024-03-05T12:19:33.707Z,84.3
2024-03-05T12:20:47.947Z,85.2
2024-03-05T12:22:02.187Z,88.5
2024-03-05T12:23:16.427Z,89
2024-03-05T12:24:30.667Z,89.8
2024-03-05T12:25:44.908Z,86.6
2024-03-05T12:26:59.148Z,89
2024-03-05T12:28:13.387Z,89.5
2024-03-05T12:29:27.627Z,85.8
2024-03-05T12:30:40.883Z,92.9
2024-03-05T12:31:55.123Z,89.9
2024-03-05T12:33:09.363Z,88.8
2024-03-05T12:34:23.602Z,84.5
2024-03-05T12:35:37.842Z,90.8
2024-03-05T12:36:52.082Z,84.6
2024-03-05T12:38:06.321Z,80.3
2024-03-05T12:39:20.562Z,80.8
2024-03-05T12:40:34.801Z,85.8
2024-03-05T12:41:49.041Z,85.6
2024-03-05T12:43:03.281Z,88
2024-03-05T12:44:17.520Z,86.7
2024-03-05T12:45:31.760Z,91.2
2024-03-05T12:46:45.015Z,88.7
2024-03-05T12:47:59.255Z,81.2
2024-03-05T12:49:12.516Z,86
2024-03-05T12:50:26.755Z,89.9
2024-03-05T12:51:40.994Z,83.8
2024-03-05T12:52:55.234Z,79
2024-03-05T12:54:09.473Z,82.1
2024-03-05T12:55:23.713Z,84.2
2024-03-05T12:56:37.952Z,84.4
2024-03-05T12:57:52.192Z,83.3
2024-03-05T12:59:06.432Z,79.5
2024-03-05T13:00:20.672Z,79.7
2024-03-05T13:01:34.911Z,79.2
2024-03-05T13:02:49.151Z,77.8
2024-03-05T13:04:03.391Z,77.9
2024-03-05T13:05:16.647Z,76.8
2024-03-05T13:06:30.886Z,77.5
2024-03-05T13:07:45.125Z,81.4
2024-03-05T13:08:59.365Z,79.8
2024-03-05T13:10:13.605Z,81
2024-03-05T13:11:27.844Z,83.3
2024-03-05T13:12:42.083Z,80.7
2024-03-05T13:13:56.323Z,87.3
2024-03-05T13:15:10.563Z,84.4
2024-03-05T13:16:24.803Z,89.7
2024-03-05T13:17:39.043Z,91.9
2024-03-05T13:18:53.283Z,85.9
2024-03-05T13:20:07.523Z,92.4
2024-03-05T13:21:20.779Z,87.6
2024-03-05T13:22:35.019Z,87
2024-03-05T13:23:49.259Z,88
2024-03-05T13:25:03.499Z,94.3
2024-03-05T13:26:17.739Z,84.3
2024-03-05T13:27:31.979Z,87.7
2024-03-05T13:28:46.219Z,80
2024-03-05T13:30:00.459Z,83.1
2024-03-05T13:31:14.699Z,79.6
2024-03-05T13:32:28.939Z,81.5
2024-03-05T13:33:43.178Z,79.6
2024-03-05T13:34:57.418Z,85.5
2024-03-05T13:36:11.658Z,84.4
2024-03-05T13:37:24.914Z,84.8
2024-03-05T13:38:39.154Z,87.3
2024-03-05T13:39:53.394Z,88.1
2024-03-05T13:41:07.634Z,83.8
2024-03-05T13:42:21.874Z,82.9
2024-03-05T13:43:36.114Z,80.6
2024-03-05T13:44:50.355Z,84.9
2024-03-05T13:46:04.595Z,84
2024-03-05T13:47:18.835Z,83.8
2024-03-05T13:48:33.075Z,83
2024-03-05T13:49:47.315Z,68.4
2024-03-05T13:51:01.555Z,67.6
2024-03-05T13:52:15.795Z,58.1
2024-03-05T13:53:29.051Z,60
2024-03-05T13:54:43.291Z,63.6
2024-03-05T13:55:57.531Z,54.9
2024-03-05T13:57:11.771Z,50.9
2024-03-05T13:58:26.011Z,55.9
2024-03-05T13:59:40.251Z,60
2024-03-05T14:00:54.492Z,57.3
2024-03-05T14:02:08.732Z,59.8
2024-03-05T14:03:22.972Z,57.1
2024-03-05T14:04:37.212Z,55.6
2024-03-05T14:05:51.452Z,54.5
2024-03-05T14:07:05.692Z,53.4
2024-03-05T14:08:19.932Z,57.6
2024-03-05T14:09:33.188Z,56.9
2024-03-05T14:10:47.428Z,53.1
2024-03-05T14:12:01.668Z,54.3
2024-03-05T14:13:15.908Z,55.1
2024-03-05T14:14:30.149Z,55.1
2024-03-05T14:15:44.389Z,58.6
2024-03-05T14:16:58.629Z,53.3
2024-03-05T14:18:12.869Z,51.2
2024-03-05T14:19:27.109Z,56.7
2024-03-05T14:20:41.349Z,57.4
2024-03-05T14:21:55.589Z,56.5
2024-03-05T14:23:09.829Z,54.4
2024-03-05T14:24:24.069Z,52
2024-03-05T14:25:37.325Z,49.4
2024-03-05T14:26:51.565Z,48.6
2024-03-05T14:28:05.805Z,48.7
2024-03-05T14:29:20.045Z,51.6
2024-03-05T14:30:34.285Z,47.3
2024-03-05T14:31:48.525Z,46.9
2024-03-05T14:33:02.765Z,42.9
2024-03-05T14:34:17.005Z,44.3
2024-03-05T14:35:31.245Z,44.9
2024-03-05T14:36:45.485Z,47.4
2024-03-05T14:37:59.725Z,43.4
2024-03-05T14:39:13.965Z,45.5
2024-03-05T14:40:28.204Z,44.1
2024-03-05T14:41:41.460Z,46.3
2024-03-05T14:42:55.700Z,43.9
2024-03-05T14:44:09.940Z,39.9
2024-03-05T14:45:24.179Z,41.1
2024-03-05T14:46:38.420Z,41.2
2024-03-05T14:47:52.659Z,40.6
2024-03-05T14:49:06.899Z,42.5
2024-03-05T14:50:21.139Z,45.4
2024-03-05T14:51:35.379Z,41
2024-03-05T14:52:49.618Z,45.8
2024-03-05T14:54:03.858Z,44.8
2024-03-05T14:55:18.098Z,43
2024-03-05T14:56:32.359Z,45
2024-03-05T14:57:45.595Z,45.5
2024-03-05T14:58:59.835Z,42.7
2024-03-05T15:00:14.075Z,39.9
2024-03-05T15:01:28.314Z,41.4
2024-03-05T15:02:42.554Z,43.4
2024-03-05T15:03:56.794Z,40.9
2024-03-05T15:05:11.034Z,41.5
2024-03-05T15:06:25.273Z,45.3
2024-03-05T15:07:39.513Z,39.4
2024-03-05T15:08:53.753Z,40.6
2024-03-05T15:10:07.993Z,41.8
2024-03-05T15:11:22.232Z,42.6
2024-03-05T15:12:36.472Z,40.3
2024-03-05T15:13:49.728Z,42.9
2024-03-05T15:15:03.968Z,43.6
2024-03-05T15:16:18.207Z,41.3
2024-03-05T15:17:32.447Z,41.4
2024-03-05T15:18:46.687Z,41.9
2024-03-05T15:20:00.927Z,42
2024-03-05T15:21:15.167Z,39.7
2024-03-05T15:22:29.406Z,44.5
2024-03-05T15:23:43.646Z,40.9
2024-03-05T15:24:57.886Z,40.8
2024-03-05T15:26:12.126Z,41.5
2024-03-05T15:27:26.365Z,42.2
2024-03-05T15:28:40.605Z,41.2
2024-03-05T15:29:53.861Z,41.5
2024-03-05T15:31:08.101Z,43.8
2024-03-05T15:32:22.341Z,38.6
2024-03-05T15:33:36.581Z,37.5
2024-03-05T15:34:50.820Z,41.8
2024-03-05T15:36:05.060Z,42
2024-03-05T15:37:19.300Z,43.7
2024-03-05T15:38:33.540Z,42
2024-03-05T15:39:47.780Z,44
2024-03-05T15:41:02.019Z,40.1
2024-03-05T15:42:16.259Z,39.1
2024-03-05T15:43:30.499Z,39
2024-03-05T15:44:44.739Z,41
2024-03-05T15:45:57.994Z,43.4
2024-03-05T15:47:12.234Z,40.8
2024-03-05T15:48:26.474Z,39.8
2024-03-05T15:49:40.714Z,40.4
2024-03-05T15:50:54.954Z,40.1
2024-03-05T15:52:09.193Z,42.6
2024-03-05T15:53:23.433Z,44.3
2024-03-05T15:54:37.673Z,43.3
2024-03-05T15:55:51.913Z,41.8
2024-03-05T15:57:06.152Z,39.7
2024-03-05T15:58:20.392Z,40.7
2024-03-05T15:59:34.632Z,40.4
2024-03-05T16:00:48.873Z,38.4
2024-03-05T16:02:02.129Z,39.1
2024-03-05T16:03:16.369Z,41.7
2024-03-05T16:04:30.609Z,39.2
2024-03-05T16:05:44.849Z,37.1
2024-03-05T16:06:59.088Z,40.2
2024-03-05T16:08:13.328Z,39.2
2024-03-05T16:09:27.568Z,41
2024-03-05T16:10:41.808Z,41.5
2024-03-05T16:11:56.048Z,43.1
2024-03-05T16:13:10.287Z,40.4
2024-03-05T16:14:24.527Z,41.6